sensor_id;sensor_type;location;lat;lon;timestamp;P1;durP1;ratioP1;P2;durP2;ratioP2
10082;SDS011;5080;48.528;8.078;2023-03-01T00:00:12;1.90;;;1.80;;
10082;SDS011;5080;48.528;8.078;2023-03-01T00:02:39;2.15;;;2.00;;
10082;SDS011;5080;48.528;8.078;2023-03-01T00:05:07;1.80;;;1.70;;
10082;SDS011;5080;48.528;8.078;2023-03-01T00:07:35;2.05;;;1.95;;
10082;SDS011;5080;48.528;8.078;2023-03-01T00:10:03;2.17;;;2.08;;
10082;SDS011;5080;48.528;8.078;2023-03-01T00:12:31;1.85;;;1.75;;
10082;SDS011;5080;48.528;8.078;2023-03-01T00:14:58;2.45;;;1.95;;
10082;SDS011;5080;48.528;8.078;2023-03-01T00:17:26;1.90;;;1.80;;
10082;SDS011;5080;48.528;8.078;2023-03-01T00:19:54;2.20;;;1.90;;
10082;SDS011;5080;48.528;8.078;2023-03-01T00:22:20;2.13;;;2.03;;
10082;SDS011;5080;48.528;8.078;2023-03-01T00:24:48;2.20;;;2.10;;
10082;SDS011;5080;48.528;8.078;2023-03-01T00:27:16;1.85;;;1.75;;
10082;SDS011;5080;48.528;8.078;2023-03-01T00:29:44;1.67;;;1.57;;
10082;SDS011;5080;48.528;8.078;2023-03-01T00:32:11;1.77;;;1.67;;
10082;SDS011;5080;48.528;8.078;2023-03-01T00:34:38;1.88;;;1.77;;
10082;SDS011;5080;48.528;8.078;2023-03-01T00:37:05;1.90;;;1.80;;
10082;SDS011;5080;48.528;8.078;2023-03-01T00:39:31;1.95;;;1.85;;
10082;SDS011;5080;48.528;8.078;2023-03-01T00:41:58;1.90;;;1.80;;
10082;SDS011;5080;48.528;8.078;2023-03-01T00:44:27;2.22;;;2.13;;
10082;SDS011;5080;48.528;8.078;2023-03-01T00:46:53;1.83;;;1.73;;
10082;SDS011;5080;48.528;8.078;2023-03-01T00:49:20;2.20;;;2.10;;
10082;SDS011;5080;48.528;8.078;2023-03-01T00:51:49;1.92;;;1.83;;
10082;SDS011;5080;48.528;8.078;2023-03-01T00:54:16;2.00;;;1.90;;
10082;SDS011;5080;48.528;8.078;2023-03-01T00:56:43;2.00;;;1.90;;
10082;SDS011;5080;48.528;8.078;2023-03-01T00:59:09;1.90;;;1.80;;
10082;SDS011;5080;48.528;8.078;2023-03-01T01:01:38;1.75;;;1.65;;
10082;SDS011;5080;48.528;8.078;2023-03-01T01:04:06;2.00;;;1.90;;
10082;SDS011;5080;48.528;8.078;2023-03-01T01:06:34;1.90;;;1.80;;
10082;SDS011;5080;48.528;8.078;2023-03-01T01:09:03;2.00;;;1.90;;
10082;SDS011;5080;48.528;8.078;2023-03-01T01:11:31;2.00;;;1.90;;
10082;SDS011;5080;48.528;8.078;2023-03-01T01:13:59;1.90;;;1.80;;
10082;SDS011;5080;48.528;8.078;2023-03-01T01:16:27;2.00;;;1.90;;
10082;SDS011;5080;48.528;8.078;2023-03-01T01:18:56;2.10;;;2.00;;
10082;SDS011;5080;48.528;8.078;2023-03-01T01:21:24;1.90;;;1.80;;
10082;SDS011;5080;48.528;8.078;2023-03-01T01:23:52;1.70;;;1.60;;
10082;SDS011;5080;48.528;8.078;2023-03-01T01:26:20;1.73;;;1.63;;
10082;SDS011;5080;48.528;8.078;2023-03-01T01:28:49;2.03;;;1.92;;
10082;SDS011;5080;48.528;8.078;2023-03-01T01:31:16;1.83;;;1.73;;
10082;SDS011;5080;48.528;8.078;2023-03-01T01:33:44;2.05;;;1.95;;
10082;SDS011;5080;48.528;8.078;2023-03-01T01:36:12;2.20;;;2.10;;
10082;SDS011;5080;48.528;8.078;2023-03-01T01:38:39;2.08;;;1.98;;
10082;SDS011;5080;48.528;8.078;2023-03-01T01:41:07;1.90;;;1.80;;
10082;SDS011;5080;48.528;8.078;2023-03-01T01:43:37;2.00;;;1.90;;
10082;SDS011;5080;48.528;8.078;2023-03-01T01:46:06;2.70;;;2.10;;
10082;SDS011;5080;48.528;8.078;2023-03-01T01:48:42;2.00;;;1.90;;
10082;SDS011;5080;48.528;8.078;2023-03-01T01:51:14;1.95;;;1.85;;
10082;SDS011;5080;48.528;8.078;2023-03-01T01:53:44;1.80;;;1.70;;
10082;SDS011;5080;48.528;8.078;2023-03-01T01:56:13;1.80;;;1.70;;
10082;SDS011;5080;48.528;8.078;2023-03-01T01:58:41;2.10;;;2.00;;
10082;SDS011;5080;48.528;8.078;2023-03-01T02:01:09;1.80;;;1.70;;
10082;SDS011;5080;48.528;8.078;2023-03-01T02:03:37;1.92;;;1.83;;
10082;SDS011;5080;48.528;8.078;2023-03-01T02:06:10;2.13;;;1.97;;
10082;SDS011;5080;48.528;8.078;2023-03-01T02:08:43;2.00;;;1.90;;
10082;SDS011;5080;48.528;8.078;2023-03-01T02:11:11;2.13;;;2.03;;
10082;SDS011;5080;48.528;8.078;2023-03-01T02:13:40;1.80;;;1.70;;
10082;SDS011;5080;48.528;8.078;2023-03-01T02:16:09;2.00;;;1.90;;
10082;SDS011;5080;48.528;8.078;2023-03-01T02:18:38;2.00;;;1.90;;
10082;SDS011;5080;48.528;8.078;2023-03-01T02:21:10;1.95;;;1.85;;
10082;SDS011;5080;48.528;8.078;2023-03-01T02:23:51;2.35;;;2.25;;
10082;SDS011;5080;48.528;8.078;2023-03-01T02:26:23;2.00;;;1.90;;
10082;SDS011;5080;48.528;8.078;2023-03-01T02:28:58;1.90;;;1.80;;
10082;SDS011;5080;48.528;8.078;2023-03-01T02:31:25;1.90;;;1.80;;
10082;SDS011;5080;48.528;8.078;2023-03-01T02:34:08;2.20;;;2.10;;
10082;SDS011;5080;48.528;8.078;2023-03-01T02:36:37;1.87;;;1.77;;
10082;SDS011;5080;48.528;8.078;2023-03-01T02:39:07;2.13;;;2.03;;
10082;SDS011;5080;48.528;8.078;2023-03-01T02:41:41;2.10;;;2.00;;
10082;SDS011;5080;48.528;8.078;2023-03-01T02:44:14;1.88;;;1.77;;
10082;SDS011;5080;48.528;8.078;2023-03-01T02:46:41;2.20;;;2.10;;
10082;SDS011;5080;48.528;8.078;2023-03-01T02:49:18;2.10;;;2.00;;
10082;SDS011;5080;48.528;8.078;2023-03-01T02:51:48;2.05;;;1.95;;
10082;SDS011;5080;48.528;8.078;2023-03-01T02:54:36;2.03;;;1.90;;
10082;SDS011;5080;48.528;8.078;2023-03-01T02:57:07;2.10;;;2.00;;
10082;SDS011;5080;48.528;8.078;2023-03-01T02:59:36;2.70;;;2.22;;
10082;SDS011;5080;48.528;8.078;2023-03-01T03:02:05;1.95;;;1.85;;
10082;SDS011;5080;48.528;8.078;2023-03-01T03:04:32;2.15;;;2.05;;
10082;SDS011;5080;48.528;8.078;2023-03-01T03:06:59;1.77;;;1.67;;
10082;SDS011;5080;48.528;8.078;2023-03-01T03:09:26;2.20;;;2.10;;
10082;SDS011;5080;48.528;8.078;2023-03-01T03:11:53;2.47;;;2.27;;
10082;SDS011;5080;48.528;8.078;2023-03-01T03:14:20;2.20;;;2.05;;
10082;SDS011;5080;48.528;8.078;2023-03-01T03:16:49;2.17;;;2.08;;
10082;SDS011;5080;48.528;8.078;2023-03-01T03:19:16;2.10;;;2.00;;
10082;SDS011;5080;48.528;8.078;2023-03-01T03:21:45;2.28;;;2.17;;
10082;SDS011;5080;48.528;8.078;2023-03-01T03:24:12;2.05;;;1.95;;
10082;SDS011;5080;48.528;8.078;2023-03-01T03:26:39;2.33;;;2.23;;
10082;SDS011;5080;48.528;8.078;2023-03-01T03:29:06;2.05;;;1.95;;
10082;SDS011;5080;48.528;8.078;2023-03-01T03:31:33;1.90;;;1.80;;
10082;SDS011;5080;48.528;8.078;2023-03-01T03:34:01;2.30;;;2.20;;
10082;SDS011;5080;48.528;8.078;2023-03-01T03:36:28;2.13;;;2.03;;
10082;SDS011;5080;48.528;8.078;2023-03-01T03:38:55;1.92;;;1.83;;
10082;SDS011;5080;48.528;8.078;2023-03-01T03:41:22;2.22;;;2.13;;
10082;SDS011;5080;48.528;8.078;2023-03-01T03:43:49;2.13;;;2.03;;
10082;SDS011;5080;48.528;8.078;2023-03-01T03:46:15;2.40;;;2.30;;
10082;SDS011;5080;48.528;8.078;2023-03-01T03:48:43;2.50;;;2.40;;
10082;SDS011;5080;48.528;8.078;2023-03-01T03:51:12;2.00;;;1.90;;
10082;SDS011;5080;48.528;8.078;2023-03-01T03:53:41;2.22;;;2.13;;
10082;SDS011;5080;48.528;8.078;2023-03-01T03:56:09;2.58;;;2.47;;
10082;SDS011;5080;48.528;8.078;2023-03-01T03:58:36;2.28;;;2.17;;
10082;SDS011;5080;48.528;8.078;2023-03-01T04:01:03;2.42;;;2.33;;
10082;SDS011;5080;48.528;8.078;2023-03-01T04:03:30;2.60;;;2.50;;
10082;SDS011;5080;48.528;8.078;2023-03-01T04:06:00;2.20;;;2.10;;
10082;SDS011;5080;48.528;8.078;2023-03-01T04:08:28;2.33;;;2.22;;
10082;SDS011;5080;48.528;8.078;2023-03-01T04:10:59;2.28;;;2.17;;
10082;SDS011;5080;48.528;8.078;2023-03-01T04:13:47;2.17;;;2.08;;
10082;SDS011;5080;48.528;8.078;2023-03-01T04:16:14;2.10;;;2.00;;
10082;SDS011;5080;48.528;8.078;2023-03-01T04:18:41;2.20;;;2.10;;
10082;SDS011;5080;48.528;8.078;2023-03-01T04:21:08;2.13;;;2.03;;
10082;SDS011;5080;48.528;8.078;2023-03-01T04:23:37;2.15;;;2.05;;
10082;SDS011;5080;48.528;8.078;2023-03-01T04:26:05;2.53;;;2.28;;
10082;SDS011;5080;48.528;8.078;2023-03-01T04:28:33;2.13;;;2.03;;
10082;SDS011;5080;48.528;8.078;2023-03-01T04:31:02;2.22;;;2.13;;
10082;SDS011;5080;48.528;8.078;2023-03-01T04:33:37;2.30;;;2.20;;
10082;SDS011;5080;48.528;8.078;2023-03-01T04:36:05;2.47;;;2.38;;
10082;SDS011;5080;48.528;8.078;2023-03-01T04:38:34;2.35;;;2.15;;
10082;SDS011;5080;48.528;8.078;2023-03-01T04:41:03;2.50;;;2.40;;
10082;SDS011;5080;48.528;8.078;2023-03-01T04:43:31;2.17;;;2.07;;
10082;SDS011;5080;48.528;8.078;2023-03-01T04:46:02;1.77;;;1.67;;
10082;SDS011;5080;48.528;8.078;2023-03-01T04:48:29;2.42;;;2.30;;
10082;SDS011;5080;48.528;8.078;2023-03-01T04:50:57;2.20;;;2.10;;
10082;SDS011;5080;48.528;8.078;2023-03-01T04:53:25;2.20;;;2.10;;
10082;SDS011;5080;48.528;8.078;2023-03-01T04:55:52;2.63;;;2.50;;
10082;SDS011;5080;48.528;8.078;2023-03-01T04:58:21;2.42;;;2.33;;
10082;SDS011;5080;48.528;8.078;2023-03-01T05:00:48;2.53;;;2.42;;
10082;SDS011;5080;48.528;8.078;2023-03-01T05:03:15;3.10;;;2.90;;
10082;SDS011;5080;48.528;8.078;2023-03-01T05:05:43;2.67;;;2.50;;
10082;SDS011;5080;48.528;8.078;2023-03-01T05:08:11;2.20;;;2.10;;
10082;SDS011;5080;48.528;8.078;2023-03-01T05:10:42;2.67;;;2.57;;
10082;SDS011;5080;48.528;8.078;2023-03-01T05:13:11;2.47;;;2.38;;
10082;SDS011;5080;48.528;8.078;2023-03-01T05:15:41;2.30;;;2.20;;
10082;SDS011;5080;48.528;8.078;2023-03-01T05:18:08;2.67;;;2.47;;
10082;SDS011;5080;48.528;8.078;2023-03-01T05:20:36;2.37;;;2.27;;
10082;SDS011;5080;48.528;8.078;2023-03-01T05:23:03;3.33;;;3.13;;
10082;SDS011;5080;48.528;8.078;2023-03-01T05:25:31;2.75;;;2.65;;
10082;SDS011;5080;48.528;8.078;2023-03-01T05:27:59;2.50;;;2.30;;
10082;SDS011;5080;48.528;8.078;2023-03-01T05:30:29;2.58;;;2.38;;
10082;SDS011;5080;48.528;8.078;2023-03-01T05:32:57;2.47;;;2.38;;
10082;SDS011;5080;48.528;8.078;2023-03-01T05:35:25;2.63;;;2.53;;
10082;SDS011;5080;48.528;8.078;2023-03-01T05:37:52;2.60;;;2.50;;
10082;SDS011;5080;48.528;8.078;2023-03-01T05:40:20;2.70;;;2.60;;
10082;SDS011;5080;48.528;8.078;2023-03-01T05:42:50;2.60;;;2.50;;
10082;SDS011;5080;48.528;8.078;2023-03-01T05:45:18;2.77;;;2.57;;
10082;SDS011;5080;48.528;8.078;2023-03-01T05:47:46;2.83;;;2.63;;
10082;SDS011;5080;48.528;8.078;2023-03-01T05:50:16;2.83;;;2.63;;
10082;SDS011;5080;48.528;8.078;2023-03-01T05:52:44;3.10;;;2.83;;
10082;SDS011;5080;48.528;8.078;2023-03-01T05:55:13;2.90;;;2.70;;
10082;SDS011;5080;48.528;8.078;2023-03-01T05:57:40;3.05;;;2.92;;
10082;SDS011;5080;48.528;8.078;2023-03-01T06:00:07;2.80;;;2.70;;
10082;SDS011;5080;48.528;8.078;2023-03-01T06:02:36;3.38;;;3.17;;
10082;SDS011;5080;48.528;8.078;2023-03-01T06:05:03;3.20;;;3.00;;
10082;SDS011;5080;48.528;8.078;2023-03-01T06:07:32;3.10;;;2.90;;
10082;SDS011;5080;48.528;8.078;2023-03-01T06:10:00;3.00;;;2.90;;
10082;SDS011;5080;48.528;8.078;2023-03-01T06:12:29;3.28;;;3.08;;
10082;SDS011;5080;48.528;8.078;2023-03-01T06:14:59;3.47;;;3.23;;
10082;SDS011;5080;48.528;8.078;2023-03-01T06:17:28;3.42;;;3.22;;
10082;SDS011;5080;48.528;8.078;2023-03-01T06:19:56;3.25;;;3.05;;
10082;SDS011;5080;48.528;8.078;2023-03-01T06:22:23;3.00;;;2.80;;
10082;SDS011;5080;48.528;8.078;2023-03-01T06:24:51;3.40;;;3.20;;
10082;SDS011;5080;48.528;8.078;2023-03-01T06:27:18;3.30;;;3.10;;
10082;SDS011;5080;48.528;8.078;2023-03-01T06:29:45;3.38;;;3.17;;
10082;SDS011;5080;48.528;8.078;2023-03-01T06:32:11;3.25;;;3.05;;
10082;SDS011;5080;48.528;8.078;2023-03-01T06:34:38;3.42;;;3.22;;
10082;SDS011;5080;48.528;8.078;2023-03-01T06:37:05;2.95;;;2.75;;
10082;SDS011;5080;48.528;8.078;2023-03-01T06:39:33;3.20;;;3.00;;
10082;SDS011;5080;48.528;8.078;2023-03-01T06:42:01;2.90;;;2.80;;
10082;SDS011;5080;48.528;8.078;2023-03-01T06:44:28;3.25;;;3.05;;
10082;SDS011;5080;48.528;8.078;2023-03-01T06:46:56;2.90;;;2.70;;
10082;SDS011;5080;48.528;8.078;2023-03-01T06:49:22;3.28;;;3.08;;
10082;SDS011;5080;48.528;8.078;2023-03-01T06:51:49;3.78;;;3.58;;
10082;SDS011;5080;48.528;8.078;2023-03-01T06:54:16;3.28;;;3.08;;
10082;SDS011;5080;48.528;8.078;2023-03-01T06:56:46;3.78;;;3.47;;
10082;SDS011;5080;48.528;8.078;2023-03-01T06:59:14;3.10;;;3.00;;
10082;SDS011;5080;48.528;8.078;2023-03-01T07:01:41;3.17;;;2.97;;
10082;SDS011;5080;48.528;8.078;2023-03-01T07:04:08;2.85;;;2.75;;
10082;SDS011;5080;48.528;8.078;2023-03-01T07:06:35;3.78;;;3.53;;
10082;SDS011;5080;48.528;8.078;2023-03-01T07:09:02;3.50;;;2.97;;
10082;SDS011;5080;48.528;8.078;2023-03-01T07:11:29;3.80;;;3.60;;
10082;SDS011;5080;48.528;8.078;2023-03-01T07:13:56;3.47;;;3.28;;
10082;SDS011;5080;48.528;8.078;2023-03-01T07:16:24;3.45;;;3.25;;
10082;SDS011;5080;48.528;8.078;2023-03-01T07:18:51;3.17;;;3.00;;
10082;SDS011;5080;48.528;8.078;2023-03-01T07:21:18;3.38;;;3.17;;
10082;SDS011;5080;48.528;8.078;2023-03-01T07:23:46;3.70;;;3.50;;
10082;SDS011;5080;48.528;8.078;2023-03-01T07:26:13;3.53;;;3.22;;
10082;SDS011;5080;48.528;8.078;2023-03-01T07:28:40;3.40;;;3.20;;
10082;SDS011;5080;48.528;8.078;2023-03-01T07:31:07;5.57;;;3.65;;
10082;SDS011;5080;48.528;8.078;2023-03-01T07:33:35;3.40;;;3.20;;
10082;SDS011;5080;48.528;8.078;2023-03-01T07:36:03;3.38;;;3.17;;
10082;SDS011;5080;48.528;8.078;2023-03-01T07:38:31;3.60;;;3.40;;
10082;SDS011;5080;48.528;8.078;2023-03-01T07:40:58;3.42;;;3.22;;
10082;SDS011;5080;48.528;8.078;2023-03-01T07:43:26;3.88;;;3.67;;
10082;SDS011;5080;48.528;8.078;2023-03-01T07:45:53;3.63;;;3.42;;
10082;SDS011;5080;48.528;8.078;2023-03-01T07:48:20;3.00;;;2.90;;
10082;SDS011;5080;48.528;8.078;2023-03-01T07:50:48;4.18;;;3.88;;
10082;SDS011;5080;48.528;8.078;2023-03-01T07:53:15;4.00;;;3.70;;
10082;SDS011;5080;48.528;8.078;2023-03-01T07:55:42;3.58;;;3.38;;
10082;SDS011;5080;48.528;8.078;2023-03-01T07:58:08;7.05;;;6.38;;
10082;SDS011;5080;48.528;8.078;2023-03-01T08:00:35;3.78;;;3.58;;
10082;SDS011;5080;48.528;8.078;2023-03-01T08:03:02;3.97;;;3.67;;
10082;SDS011;5080;48.528;8.078;2023-03-01T08:05:29;4.35;;;4.05;;
10082;SDS011;5080;48.528;8.078;2023-03-01T08:07:57;4.00;;;3.80;;
10082;SDS011;5080;48.528;8.078;2023-03-01T08:10:24;4.00;;;3.80;;
10082;SDS011;5080;48.528;8.078;2023-03-01T08:12:51;3.72;;;3.53;;
10082;SDS011;5080;48.528;8.078;2023-03-01T08:15:18;3.35;;;3.15;;
10082;SDS011;5080;48.528;8.078;2023-03-01T08:17:45;3.60;;;3.40;;
10082;SDS011;5080;48.528;8.078;2023-03-01T08:20:15;4.13;;;3.83;;
10082;SDS011;5080;48.528;8.078;2023-03-01T08:22:42;4.00;;;3.80;;
10082;SDS011;5080;48.528;8.078;2023-03-01T08:25:10;4.10;;;3.80;;
10082;SDS011;5080;48.528;8.078;2023-03-01T08:27:37;3.60;;;3.40;;
10082;SDS011;5080;48.528;8.078;2023-03-01T08:30:04;4.40;;;4.18;;
10082;SDS011;5080;48.528;8.078;2023-03-01T08:32:34;3.92;;;3.70;;
10082;SDS011;5080;48.528;8.078;2023-03-01T08:35:02;4.22;;;3.95;;
10082;SDS011;5080;48.528;8.078;2023-03-01T08:37:29;3.63;;;3.42;;
10082;SDS011;5080;48.528;8.078;2023-03-01T08:39:58;4.00;;;3.70;;
10082;SDS011;5080;48.528;8.078;2023-03-01T08:42:26;3.97;;;3.67;;
10082;SDS011;5080;48.528;8.078;2023-03-01T08:44:53;3.63;;;3.42;;
10082;SDS011;5080;48.528;8.078;2023-03-01T08:47:20;4.45;;;4.13;;
10082;SDS011;5080;48.528;8.078;2023-03-01T08:49:46;4.15;;;3.88;;
10082;SDS011;5080;48.528;8.078;2023-03-01T08:52:15;4.10;;;3.80;;
10082;SDS011;5080;48.528;8.078;2023-03-01T08:54:41;3.70;;;3.50;;
10082;SDS011;5080;48.528;8.078;2023-03-01T08:57:08;3.50;;;3.30;;
10082;SDS011;5080;48.528;8.078;2023-03-01T08:59:36;3.78;;;3.58;;
10082;SDS011;5080;48.528;8.078;2023-03-01T09:02:03;3.60;;;3.40;;
10082;SDS011;5080;48.528;8.078;2023-03-01T09:04:30;4.15;;;3.85;;
10082;SDS011;5080;48.528;8.078;2023-03-01T09:06:58;3.83;;;3.63;;
10082;SDS011;5080;48.528;8.078;2023-03-01T09:09:25;3.90;;;3.70;;
10082;SDS011;5080;48.528;8.078;2023-03-01T09:11:51;4.07;;;3.80;;
10082;SDS011;5080;48.528;8.078;2023-03-01T09:14:18;4.20;;;4.00;;
10082;SDS011;5080;48.528;8.078;2023-03-01T09:16:46;4.50;;;4.03;;
10082;SDS011;5080;48.528;8.078;2023-03-01T09:19:13;3.40;;;3.20;;
10082;SDS011;5080;48.528;8.078;2023-03-01T09:21:40;3.67;;;3.47;;
10082;SDS011;5080;48.528;8.078;2023-03-01T09:24:17;3.93;;;3.73;;
10082;SDS011;5080;48.528;8.078;2023-03-01T09:26:45;3.50;;;3.30;;
10082;SDS011;5080;48.528;8.078;2023-03-01T09:29:13;3.80;;;3.60;;
10082;SDS011;5080;48.528;8.078;2023-03-01T09:31:40;3.47;;;3.28;;
10082;SDS011;5080;48.528;8.078;2023-03-01T09:34:09;3.22;;;3.05;;
10082;SDS011;5080;48.528;8.078;2023-03-01T09:36:35;4.07;;;3.83;;
10082;SDS011;5080;48.528;8.078;2023-03-01T09:39:03;4.18;;;3.88;;
10082;SDS011;5080;48.528;8.078;2023-03-01T09:41:36;3.90;;;3.70;;
10082;SDS011;5080;48.528;8.078;2023-03-01T09:44:10;3.40;;;3.20;;
10082;SDS011;5080;48.528;8.078;2023-03-01T09:46:46;3.85;;;3.55;;
10082;SDS011;5080;48.528;8.078;2023-03-01T09:49:16;3.50;;;3.30;;
10082;SDS011;5080;48.528;8.078;2023-03-01T09:51:48;3.90;;;3.70;;
10082;SDS011;5080;48.528;8.078;2023-03-01T09:54:22;3.70;;;3.50;;
10082;SDS011;5080;48.528;8.078;2023-03-01T09:56:53;3.42;;;3.22;;
10082;SDS011;5080;48.528;8.078;2023-03-01T09:59:31;3.63;;;3.33;;
10082;SDS011;5080;48.528;8.078;2023-03-01T10:02:17;3.90;;;3.70;;
10082;SDS011;5080;48.528;8.078;2023-03-01T10:04:54;3.97;;;3.67;;
10082;SDS011;5080;48.528;8.078;2023-03-01T10:07:27;3.47;;;3.28;;
10082;SDS011;5080;48.528;8.078;2023-03-01T10:10:04;3.83;;;3.63;;
10082;SDS011;5080;48.528;8.078;2023-03-01T10:12:33;3.70;;;3.50;;
10082;SDS011;5080;48.528;8.078;2023-03-01T10:15:02;3.37;;;3.17;;
10082;SDS011;5080;48.528;8.078;2023-03-01T10:17:36;3.80;;;3.60;;
10082;SDS011;5080;48.528;8.078;2023-03-01T10:20:13;3.70;;;3.50;;
10082;SDS011;5080;48.528;8.078;2023-03-01T10:22:46;3.60;;;3.40;;
10082;SDS011;5080;48.528;8.078;2023-03-01T10:25:20;3.50;;;3.30;;
10082;SDS011;5080;48.528;8.078;2023-03-01T10:27:52;3.47;;;3.17;;
10082;SDS011;5080;48.528;8.078;2023-03-01T10:30:21;3.60;;;3.40;;
10082;SDS011;5080;48.528;8.078;2023-03-01T10:32:57;3.40;;;3.20;;
10082;SDS011;5080;48.528;8.078;2023-03-01T10:35:27;3.37;;;3.17;;
10082;SDS011;5080;48.528;8.078;2023-03-01T10:38:02;3.43;;;3.23;;
10082;SDS011;5080;48.528;8.078;2023-03-01T10:40:31;3.50;;;3.30;;
10082;SDS011;5080;48.528;8.078;2023-03-01T10:42:58;3.40;;;3.20;;
10082;SDS011;5080;48.528;8.078;2023-03-01T10:45:30;3.50;;;3.30;;
10082;SDS011;5080;48.528;8.078;2023-03-01T10:48:02;3.50;;;3.20;;
10082;SDS011;5080;48.528;8.078;2023-03-01T10:50:32;3.72;;;3.53;;
10082;SDS011;5080;48.528;8.078;2023-03-01T10:53:00;3.67;;;3.47;;
10082;SDS011;5080;48.528;8.078;2023-03-01T10:55:30;3.50;;;3.30;;
10082;SDS011;5080;48.528;8.078;2023-03-01T10:58:08;3.43;;;3.23;;
10082;SDS011;5080;48.528;8.078;2023-03-01T11:00:48;3.13;;;3.00;;
10082;SDS011;5080;48.528;8.078;2023-03-01T11:03:18;4.90;;;3.27;;
10082;SDS011;5080;48.528;8.078;2023-03-01T11:05:54;3.40;;;3.20;;
10082;SDS011;5080;48.528;8.078;2023-03-01T11:08:37;3.40;;;3.20;;
10082;SDS011;5080;48.528;8.078;2023-03-01T11:11:07;4.00;;;3.80;;
10082;SDS011;5080;48.528;8.078;2023-03-01T11:13:51;3.30;;;3.10;;
10082;SDS011;5080;48.528;8.078;2023-03-01T11:16:27;3.57;;;3.37;;
10082;SDS011;5080;48.528;8.078;2023-03-01T11:18:58;3.23;;;3.03;;
10082;SDS011;5080;48.528;8.078;2023-03-01T11:21:28;3.53;;;3.33;;
10082;SDS011;5080;48.528;8.078;2023-03-01T11:23:58;3.43;;;3.23;;
10082;SDS011;5080;48.528;8.078;2023-03-01T11:26:27;3.30;;;3.10;;
10082;SDS011;5080;48.528;8.078;2023-03-01T11:28:57;3.70;;;3.50;;
10082;SDS011;5080;48.528;8.078;2023-03-01T11:31:28;3.70;;;3.50;;
10082;SDS011;5080;48.528;8.078;2023-03-01T11:33:56;4.13;;;3.85;;
10082;SDS011;5080;48.528;8.078;2023-03-01T11:36:30;3.77;;;3.57;;
10082;SDS011;5080;48.528;8.078;2023-03-01T11:39:02;3.57;;;3.37;;
10082;SDS011;5080;48.528;8.078;2023-03-01T11:41:39;3.30;;;3.10;;
10082;SDS011;5080;48.528;8.078;2023-03-01T11:44:10;3.33;;;3.13;;
10082;SDS011;5080;48.528;8.078;2023-03-01T11:46:49;3.60;;;3.40;;
10082;SDS011;5080;48.528;8.078;2023-03-01T11:49:45;3.50;;;3.30;;
10082;SDS011;5080;48.528;8.078;2023-03-01T11:52:37;3.40;;;3.20;;
10082;SDS011;5080;48.528;8.078;2023-03-01T11:55:20;3.67;;;3.47;;
10082;SDS011;5080;48.528;8.078;2023-03-01T11:58:04;3.80;;;3.50;;
10082;SDS011;5080;48.528;8.078;2023-03-01T12:00:49;3.30;;;3.10;;
10082;SDS011;5080;48.528;8.078;2023-03-01T12:03:30;4.00;;;3.70;;
10082;SDS011;5080;48.528;8.078;2023-03-01T12:09:04;3.53;;;3.33;;
10082;SDS011;5080;48.528;8.078;2023-03-01T12:11:47;3.60;;;3.40;;
10082;SDS011;5080;48.528;8.078;2023-03-01T12:14:35;3.33;;;3.13;;
10082;SDS011;5080;48.528;8.078;2023-03-01T12:17:28;3.67;;;3.47;;
10082;SDS011;5080;48.528;8.078;2023-03-01T12:20:25;3.90;;;3.60;;
10082;SDS011;5080;48.528;8.078;2023-03-01T12:23:03;3.67;;;3.47;;
10082;SDS011;5080;48.528;8.078;2023-03-01T12:25:58;3.60;;;3.40;;
10082;SDS011;5080;48.528;8.078;2023-03-01T12:28:47;4.20;;;3.90;;
10082;SDS011;5080;48.528;8.078;2023-03-01T12:31:35;3.55;;;3.35;;
10082;SDS011;5080;48.528;8.078;2023-03-01T12:34:14;3.77;;;3.57;;
10082;SDS011;5080;48.528;8.078;2023-03-01T12:36:56;3.67;;;3.33;;
10082;SDS011;5080;48.528;8.078;2023-03-01T12:39:40;3.60;;;3.40;;
10082;SDS011;5080;48.528;8.078;2023-03-01T12:42:19;3.90;;;3.70;;
10082;SDS011;5080;48.528;8.078;2023-03-01T12:44:56;3.57;;;3.37;;
10082;SDS011;5080;48.528;8.078;2023-03-01T12:47:47;3.37;;;3.17;;
10082;SDS011;5080;48.528;8.078;2023-03-01T12:50:26;3.73;;;3.53;;
10082;SDS011;5080;48.528;8.078;2023-03-01T12:53:02;4.23;;;3.93;;
10082;SDS011;5080;48.528;8.078;2023-03-01T12:55:29;3.97;;;3.67;;
10082;SDS011;5080;48.528;8.078;2023-03-01T12:58:06;3.40;;;3.20;;
10082;SDS011;5080;48.528;8.078;2023-03-01T13:00:45;3.57;;;3.37;;
10082;SDS011;5080;48.528;8.078;2023-03-01T13:03:20;3.67;;;3.40;;
10082;SDS011;5080;48.528;8.078;2023-03-01T13:05:59;3.50;;;3.30;;
10082;SDS011;5080;48.528;8.078;2023-03-01T13:08:35;3.60;;;3.30;;
10082;SDS011;5080;48.528;8.078;2023-03-01T13:11:11;3.88;;;3.67;;
10082;SDS011;5080;48.528;8.078;2023-03-01T13:13:45;3.53;;;3.33;;
10082;SDS011;5080;48.528;8.078;2023-03-01T13:16:21;3.57;;;3.37;;
10082;SDS011;5080;48.528;8.078;2023-03-01T13:19:06;3.40;;;3.20;;
10082;SDS011;5080;48.528;8.078;2023-03-01T13:21:35;3.47;;;3.27;;
10082;SDS011;5080;48.528;8.078;2023-03-01T13:24:02;3.47;;;3.27;;
10082;SDS011;5080;48.528;8.078;2023-03-01T13:26:29;3.60;;;3.40;;
10082;SDS011;5080;48.528;8.078;2023-03-01T13:28:57;3.47;;;3.27;;
10082;SDS011;5080;48.528;8.078;2023-03-01T13:34:39;3.70;;;3.50;;
10082;SDS011;5080;48.528;8.078;2023-03-01T13:37:22;3.57;;;3.37;;
10082;SDS011;5080;48.528;8.078;2023-03-01T13:40:00;3.92;;;3.60;;
10082;SDS011;5080;48.528;8.078;2023-03-01T13:42:34;3.73;;;3.53;;
10082;SDS011;5080;48.528;8.078;2023-03-01T13:45:12;3.57;;;3.37;;
10082;SDS011;5080;48.528;8.078;2023-03-01T13:47:59;3.67;;;3.47;;
10082;SDS011;5080;48.528;8.078;2023-03-01T13:50:32;3.53;;;3.33;;
10082;SDS011;5080;48.528;8.078;2023-03-01T13:53:03;3.40;;;3.20;;
10082;SDS011;5080;48.528;8.078;2023-03-01T13:55:34;3.60;;;3.40;;
10082;SDS011;5080;48.528;8.078;2023-03-01T13:58:14;3.70;;;3.50;;
10082;SDS011;5080;48.528;8.078;2023-03-01T14:00:45;3.50;;;3.30;;
10082;SDS011;5080;48.528;8.078;2023-03-01T14:03:13;3.40;;;3.20;;
10082;SDS011;5080;48.528;8.078;2023-03-01T14:05:42;3.20;;;3.00;;
10082;SDS011;5080;48.528;8.078;2023-03-01T14:08:24;3.47;;;3.27;;
10082;SDS011;5080;48.528;8.078;2023-03-01T14:13:52;3.47;;;3.28;;
10082;SDS011;5080;48.528;8.078;2023-03-01T14:16:31;3.40;;;3.20;;
10082;SDS011;5080;48.528;8.078;2023-03-01T14:19:09;3.80;;;3.50;;
10082;SDS011;5080;48.528;8.078;2023-03-01T14:21:41;3.53;;;3.33;;
10082;SDS011;5080;48.528;8.078;2023-03-01T14:24:15;3.60;;;3.30;;
10082;SDS011;5080;48.528;8.078;2023-03-01T14:26:44;3.60;;;3.40;;
10082;SDS011;5080;48.528;8.078;2023-03-01T14:29:23;3.47;;;3.27;;
10082;SDS011;5080;48.528;8.078;2023-03-01T14:31:52;3.10;;;2.90;;
10082;SDS011;5080;48.528;8.078;2023-03-01T14:34:24;3.33;;;3.13;;
10082;SDS011;5080;48.528;8.078;2023-03-01T14:36:51;3.40;;;3.20;;
10082;SDS011;5080;48.528;8.078;2023-03-01T14:39:18;3.40;;;3.20;;
10082;SDS011;5080;48.528;8.078;2023-03-01T14:41:51;3.33;;;3.05;;
10082;SDS011;5080;48.528;8.078;2023-03-01T14:44:19;3.30;;;3.10;;
10082;SDS011;5080;48.528;8.078;2023-03-01T14:46:53;3.30;;;3.10;;
10082;SDS011;5080;48.528;8.078;2023-03-01T14:49:23;2.90;;;2.80;;
10082;SDS011;5080;48.528;8.078;2023-03-01T14:51:53;3.40;;;3.20;;
10082;SDS011;5080;48.528;8.078;2023-03-01T14:54:25;3.20;;;3.00;;
10082;SDS011;5080;48.528;8.078;2023-03-01T14:56:57;2.87;;;2.70;;
10082;SDS011;5080;48.528;8.078;2023-03-01T14:59:26;3.03;;;2.90;;
10082;SDS011;5080;48.528;8.078;2023-03-01T15:01:55;3.47;;;3.27;;
10082;SDS011;5080;48.528;8.078;2023-03-01T15:04:24;3.10;;;2.90;;
10082;SDS011;5080;48.528;8.078;2023-03-01T15:06:53;3.20;;;3.00;;
10082;SDS011;5080;48.528;8.078;2023-03-01T15:09:22;2.87;;;2.77;;
10082;SDS011;5080;48.528;8.078;2023-03-01T15:11:49;3.47;;;3.27;;
10082;SDS011;5080;48.528;8.078;2023-03-01T15:14:26;3.40;;;3.20;;
10082;SDS011;5080;48.528;8.078;2023-03-01T15:16:55;3.17;;;2.97;;
10082;SDS011;5080;48.528;8.078;2023-03-01T15:19:23;3.17;;;2.97;;
10082;SDS011;5080;48.528;8.078;2023-03-01T15:21:53;2.80;;;2.70;;
10082;SDS011;5080;48.528;8.078;2023-03-01T15:24:23;3.03;;;2.90;;
10082;SDS011;5080;48.528;8.078;2023-03-01T15:26:53;3.07;;;2.87;;
10082;SDS011;5080;48.528;8.078;2023-03-01T15:29:23;2.87;;;2.77;;